sensor_id;sensor_type;location;lat;lon;timestamp;P1;durP1;ratioP1;P2;durP2;ratioP2
11127;SDS011;5618;51.028;5.234;2022-08-21T00:01:01;3.30;;;1.98;;
11127;SDS011;5618;51.028;5.234;2022-08-21T00:03:31;1.83;;;1.70;;
11127;SDS011;5618;51.028;5.234;2022-08-21T00:05:57;5.63;;;1.80;;
11127;SDS011;5618;51.028;5.234;2022-08-21T00:08:23;3.15;;;1.80;;
11127;SDS011;5618;51.028;5.234;2022-08-21T00:10:49;2.13;;;1.88;;
11127;SDS011;5618;51.028;5.234;2022-08-21T00:13:15;1.90;;;1.70;;
11127;SDS011;5618;51.028;5.234;2022-08-21T00:15:42;2.10;;;1.90;;
11127;SDS011;5618;51.028;5.234;2022-08-21T00:18:08;3.53;;;2.10;;
11127;SDS011;5618;51.028;5.234;2022-08-21T00:20:35;3.05;;;1.73;;
11127;SDS011;5618;51.028;5.234;2022-08-21T00:23:02;6.15;;;2.20;;
11127;SDS011;5618;51.028;5.234;2022-08-21T00:25:28;2.85;;;2.10;;
11127;SDS011;5618;51.028;5.234;2022-08-21T00:27:54;2.35;;;1.80;;
11127;SDS011;5618;51.028;5.234;2022-08-21T00:30:21;1.83;;;1.52;;
11127;SDS011;5618;51.028;5.234;2022-08-21T00:32:49;2.58;;;1.80;;
11127;SDS011;5618;51.028;5.234;2022-08-21T00:35:16;2.13;;;1.83;;
11127;SDS011;5618;51.028;5.234;2022-08-21T00:37:45;2.03;;;1.50;;
11127;SDS011;5618;51.028;5.234;2022-08-21T00:40:12;2.17;;;1.60;;
11127;SDS011;5618;51.028;5.234;2022-08-21T00:42:39;4.00;;;1.85;;
11127;SDS011;5618;51.028;5.234;2022-08-21T00:45:05;2.45;;;1.80;;
11127;SDS011;5618;51.028;5.234;2022-08-21T00:47:32;5.03;;;2.03;;
11127;SDS011;5618;51.028;5.234;2022-08-21T00:49:57;2.35;;;1.50;;
11127;SDS011;5618;51.028;5.234;2022-08-21T00:52:24;2.45;;;1.48;;
11127;SDS011;5618;51.028;5.234;2022-08-21T00:54:55;4.47;;;2.10;;
11127;SDS011;5618;51.028;5.234;2022-08-21T00:57:24;5.72;;;2.33;;
11127;SDS011;5618;51.028;5.234;2022-08-21T00:59:54;1.45;;;1.25;;
11127;SDS011;5618;51.028;5.234;2022-08-21T01:02:23;1.73;;;1.40;;
11127;SDS011;5618;51.028;5.234;2022-08-21T01:04:51;1.05;;;1.05;;
11127;SDS011;5618;51.028;5.234;2022-08-21T01:07:16;2.28;;;2.00;;
11127;SDS011;5618;51.028;5.234;2022-08-21T01:09:42;3.47;;;1.55;;
11127;SDS011;5618;51.028;5.234;2022-08-21T01:12:10;1.45;;;1.35;;
11127;SDS011;5618;51.028;5.234;2022-08-21T01:14:36;2.33;;;1.35;;
11127;SDS011;5618;51.028;5.234;2022-08-21T01:17:04;4.85;;;1.98;;
11127;SDS011;5618;51.028;5.234;2022-08-21T01:19:31;2.08;;;1.88;;
11127;SDS011;5618;51.028;5.234;2022-08-21T01:21:57;1.58;;;1.48;;
11127;SDS011;5618;51.028;5.234;2022-08-21T01:24:24;1.65;;;1.55;;
11127;SDS011;5618;51.028;5.234;2022-08-21T01:26:50;1.73;;;1.63;;
11127;SDS011;5618;51.028;5.234;2022-08-21T01:32:16;3.88;;;1.60;;
11127;SDS011;5618;51.028;5.234;2022-08-21T01:34:46;3.30;;;1.95;;
11127;SDS011;5618;51.028;5.234;2022-08-21T01:37:13;1.90;;;1.75;;
11127;SDS011;5618;51.028;5.234;2022-08-21T01:39:41;2.90;;;1.70;;
11127;SDS011;5618;51.028;5.234;2022-08-21T01:42:08;1.88;;;1.77;;
11127;SDS011;5618;51.028;5.234;2022-08-21T01:44:34;1.70;;;1.60;;
11127;SDS011;5618;51.028;5.234;2022-08-21T01:47:01;1.58;;;1.25;;
11127;SDS011;5618;51.028;5.234;2022-08-21T01:49:28;1.67;;;1.55;;
11127;SDS011;5618;51.028;5.234;2022-08-21T01:51:54;3.00;;;1.77;;
11127;SDS011;5618;51.028;5.234;2022-08-21T01:54:19;3.00;;;1.80;;
11127;SDS011;5618;51.028;5.234;2022-08-21T01:56:47;2.95;;;1.73;;
11127;SDS011;5618;51.028;5.234;2022-08-21T01:59:14;1.48;;;1.35;;
11127;SDS011;5618;51.028;5.234;2022-08-21T02:01:40;3.65;;;2.10;;
11127;SDS011;5618;51.028;5.234;2022-08-21T02:04:07;3.35;;;1.80;;
11127;SDS011;5618;51.028;5.234;2022-08-21T02:06:33;5.90;;;3.50;;
11127;SDS011;5618;51.028;5.234;2022-08-21T02:09:00;2.05;;;1.65;;
11127;SDS011;5618;51.028;5.234;2022-08-21T02:11:27;5.80;;;1.92;;
11127;SDS011;5618;51.028;5.234;2022-08-21T02:13:53;3.83;;;2.10;;
11127;SDS011;5618;51.028;5.234;2022-08-21T02:16:19;2.70;;;1.63;;
11127;SDS011;5618;51.028;5.234;2022-08-21T02:18:45;2.55;;;1.70;;
11127;SDS011;5618;51.028;5.234;2022-08-21T02:21:11;3.33;;;1.80;;
11127;SDS011;5618;51.028;5.234;2022-08-21T02:23:37;4.60;;;2.20;;
11127;SDS011;5618;51.028;5.234;2022-08-21T02:26:04;2.53;;;1.83;;
11127;SDS011;5618;51.028;5.234;2022-08-21T02:28:31;3.60;;;1.67;;
11127;SDS011;5618;51.028;5.234;2022-08-21T02:30:58;2.55;;;1.95;;
11127;SDS011;5618;51.028;5.234;2022-08-21T02:33:24;2.10;;;1.90;;
11127;SDS011;5618;51.028;5.234;2022-08-21T02:35:51;3.28;;;2.30;;
11127;SDS011;5618;51.028;5.234;2022-08-21T02:38:19;3.17;;;1.77;;
11127;SDS011;5618;51.028;5.234;2022-08-21T02:40:47;3.47;;;2.20;;
11127;SDS011;5618;51.028;5.234;2022-08-21T02:43:16;3.90;;;1.65;;
11127;SDS011;5618;51.028;5.234;2022-08-21T02:45:44;2.92;;;1.88;;
11127;SDS011;5618;51.028;5.234;2022-08-21T02:48:11;5.72;;;2.47;;
11127;SDS011;5618;51.028;5.234;2022-08-21T02:50:43;3.00;;;1.90;;
11127;SDS011;5618;51.028;5.234;2022-08-21T02:53:16;3.30;;;2.45;;
11127;SDS011;5618;51.028;5.234;2022-08-21T02:55:42;2.67;;;2.00;;
11127;SDS011;5618;51.028;5.234;2022-08-21T02:58:10;3.50;;;2.58;;
11127;SDS011;5618;51.028;5.234;2022-08-21T03:00:37;3.17;;;1.80;;
11127;SDS011;5618;51.028;5.234;2022-08-21T03:03:04;4.30;;;2.00;;
11127;SDS011;5618;51.028;5.234;2022-08-21T03:05:31;2.03;;;1.85;;
11127;SDS011;5618;51.028;5.234;2022-08-21T03:07:59;2.78;;;1.98;;
11127;SDS011;5618;51.028;5.234;2022-08-21T03:10:26;3.75;;;1.95;;
11127;SDS011;5618;51.028;5.234;2022-08-21T03:12:53;2.58;;;2.22;;
11127;SDS011;5618;51.028;5.234;2022-08-21T03:15:21;2.30;;;2.10;;
11127;SDS011;5618;51.028;5.234;2022-08-21T03:17:49;4.82;;;2.13;;
11127;SDS011;5618;51.028;5.234;2022-08-21T03:20:16;5.43;;;2.25;;
11127;SDS011;5618;51.028;5.234;2022-08-21T03:22:43;2.42;;;1.98;;
11127;SDS011;5618;51.028;5.234;2022-08-21T03:25:09;2.85;;;2.00;;
11127;SDS011;5618;51.028;5.234;2022-08-21T03:27:35;5.47;;;2.13;;
11127;SDS011;5618;51.028;5.234;2022-08-21T03:30:03;5.32;;;2.22;;
11127;SDS011;5618;51.028;5.234;2022-08-21T03:32:30;2.22;;;1.80;;
11127;SDS011;5618;51.028;5.234;2022-08-21T03:34:56;2.50;;;1.63;;
11127;SDS011;5618;51.028;5.234;2022-08-21T03:37:23;3.05;;;1.98;;
11127;SDS011;5618;51.028;5.234;2022-08-21T03:39:49;3.33;;;2.30;;
11127;SDS011;5618;51.028;5.234;2022-08-21T03:42:15;2.70;;;2.10;;
11127;SDS011;5618;51.028;5.234;2022-08-21T03:44:41;4.03;;;2.25;;
11127;SDS011;5618;51.028;5.234;2022-08-21T03:47:07;2.13;;;1.88;;
11127;SDS011;5618;51.028;5.234;2022-08-21T03:49:33;6.43;;;2.15;;
11127;SDS011;5618;51.028;5.234;2022-08-21T03:51:59;5.43;;;2.03;;
11127;SDS011;5618;51.028;5.234;2022-08-21T03:54:25;4.60;;;2.00;;
11127;SDS011;5618;51.028;5.234;2022-08-21T03:56:51;7.95;;;1.83;;
11127;SDS011;5618;51.028;5.234;2022-08-21T03:59:16;4.10;;;2.10;;
11127;SDS011;5618;51.028;5.234;2022-08-21T04:01:56;4.03;;;1.55;;
11127;SDS011;5618;51.028;5.234;2022-08-21T04:04:24;2.05;;;1.85;;
11127;SDS011;5618;51.028;5.234;2022-08-21T04:06:51;2.22;;;1.95;;
11127;SDS011;5618;51.028;5.234;2022-08-21T04:09:17;5.53;;;2.35;;
11127;SDS011;5618;51.028;5.234;2022-08-21T04:11:43;3.88;;;2.20;;
11127;SDS011;5618;51.028;5.234;2022-08-21T04:14:10;3.50;;;2.30;;
11127;SDS011;5618;51.028;5.234;2022-08-21T04:16:36;4.82;;;2.08;;
11127;SDS011;5618;51.028;5.234;2022-08-21T04:19:01;2.28;;;1.80;;
11127;SDS011;5618;51.028;5.234;2022-08-21T04:21:27;2.58;;;1.88;;
11127;SDS011;5618;51.028;5.234;2022-08-21T04:23:54;6.32;;;2.22;;
11127;SDS011;5618;51.028;5.234;2022-08-21T04:26:20;2.35;;;1.80;;
11127;SDS011;5618;51.028;5.234;2022-08-21T04:28:46;3.83;;;2.05;;
11127;SDS011;5618;51.028;5.234;2022-08-21T04:31:11;1.80;;;1.70;;
11127;SDS011;5618;51.028;5.234;2022-08-21T04:33:37;5.55;;;2.17;;
11127;SDS011;5618;51.028;5.234;2022-08-21T04:36:03;1.75;;;1.65;;
11127;SDS011;5618;51.028;5.234;2022-08-21T04:38:29;3.33;;;2.10;;
11127;SDS011;5618;51.028;5.234;2022-08-21T04:40:56;4.75;;;2.22;;
11127;SDS011;5618;51.028;5.234;2022-08-21T04:43:22;2.35;;;1.90;;
11127;SDS011;5618;51.028;5.234;2022-08-21T04:45:49;2.25;;;1.70;;
11127;SDS011;5618;51.028;5.234;2022-08-21T04:48:18;2.10;;;1.35;;
11127;SDS011;5618;51.028;5.234;2022-08-21T04:51:07;3.25;;;1.80;;
11127;SDS011;5618;51.028;5.234;2022-08-21T04:56:56;4.20;;;1.65;;
11127;SDS011;5618;51.028;5.234;2022-08-21T04:59:26;4.45;;;1.92;;
11127;SDS011;5618;51.028;5.234;2022-08-21T05:01:58;4.75;;;1.80;;
11127;SDS011;5618;51.028;5.234;2022-08-21T05:04:26;2.03;;;1.77;;
11127;SDS011;5618;51.028;5.234;2022-08-21T05:06:56;1.60;;;1.40;;
11127;SDS011;5618;51.028;5.234;2022-08-21T05:09:25;5.30;;;2.05;;
11127;SDS011;5618;51.028;5.234;2022-08-21T05:11:52;2.88;;;1.90;;
11127;SDS011;5618;51.028;5.234;2022-08-21T05:14:18;3.72;;;1.98;;
11127;SDS011;5618;51.028;5.234;2022-08-21T05:16:44;3.92;;;2.08;;
11127;SDS011;5618;51.028;5.234;2022-08-21T05:19:11;2.15;;;2.00;;
11127;SDS011;5618;51.028;5.234;2022-08-21T05:21:39;3.85;;;1.88;;
11127;SDS011;5618;51.028;5.234;2022-08-21T05:24:08;2.88;;;1.98;;
11127;SDS011;5618;51.028;5.234;2022-08-21T05:26:33;1.55;;;1.42;;
11127;SDS011;5618;51.028;5.234;2022-08-21T05:28:59;2.00;;;1.80;;
11127;SDS011;5618;51.028;5.234;2022-08-21T05:31:25;2.78;;;1.73;;
11127;SDS011;5618;51.028;5.234;2022-08-21T05:33:51;3.45;;;1.65;;
11127;SDS011;5618;51.028;5.234;2022-08-21T05:36:17;5.13;;;1.67;;
11127;SDS011;5618;51.028;5.234;2022-08-21T05:38:43;4.75;;;1.70;;
11127;SDS011;5618;51.028;5.234;2022-08-21T05:41:09;2.80;;;1.58;;
11127;SDS011;5618;51.028;5.234;2022-08-21T05:43:35;4.22;;;1.80;;
11127;SDS011;5618;51.028;5.234;2022-08-21T05:46:02;2.33;;;1.60;;
11127;SDS011;5618;51.028;5.234;2022-08-21T05:48:29;3.80;;;1.75;;
11127;SDS011;5618;51.028;5.234;2022-08-21T05:50:55;3.58;;;1.45;;
11127;SDS011;5618;51.028;5.234;2022-08-21T05:53:22;3.85;;;2.28;;
11127;SDS011;5618;51.028;5.234;2022-08-21T05:55:49;2.63;;;1.42;;
11127;SDS011;5618;51.028;5.234;2022-08-21T05:58:16;3.17;;;1.73;;
11127;SDS011;5618;51.028;5.234;2022-08-21T06:00:45;5.47;;;2.00;;
11127;SDS011;5618;51.028;5.234;2022-08-21T06:03:17;3.05;;;1.67;;
11127;SDS011;5618;51.028;5.234;2022-08-21T06:05:51;2.53;;;1.38;;
11127;SDS011;5618;51.028;5.234;2022-08-21T06:08:18;6.15;;;1.85;;
11127;SDS011;5618;51.028;5.234;2022-08-21T06:10:45;4.20;;;1.83;;
11127;SDS011;5618;51.028;5.234;2022-08-21T06:13:12;2.53;;;1.55;;
11127;SDS011;5618;51.028;5.234;2022-08-21T06:15:39;1.63;;;1.33;;
11127;SDS011;5618;51.028;5.234;2022-08-21T06:18:05;2.53;;;1.55;;
11127;SDS011;5618;51.028;5.234;2022-08-21T06:20:31;6.75;;;2.00;;
11127;SDS011;5618;51.028;5.234;2022-08-21T06:22:57;2.33;;;1.38;;
11127;SDS011;5618;51.028;5.234;2022-08-21T06:25:23;5.57;;;1.83;;
11127;SDS011;5618;51.028;5.234;2022-08-21T06:27:49;3.25;;;1.70;;
11127;SDS011;5618;51.028;5.234;2022-08-21T06:30:16;6.10;;;1.52;;
11127;SDS011;5618;51.028;5.234;2022-08-21T06:32:42;2.72;;;1.38;;
11127;SDS011;5618;51.028;5.234;2022-08-21T06:35:09;3.67;;;1.70;;
11127;SDS011;5618;51.028;5.234;2022-08-21T06:37:35;2.75;;;1.60;;
11127;SDS011;5618;51.028;5.234;2022-08-21T06:40:02;2.40;;;1.30;;
11127;SDS011;5618;51.028;5.234;2022-08-21T06:42:29;3.65;;;1.25;;
11127;SDS011;5618;51.028;5.234;2022-08-21T06:44:56;4.63;;;1.63;;
11127;SDS011;5618;51.028;5.234;2022-08-21T06:47:22;4.35;;;1.27;;
11127;SDS011;5618;51.028;5.234;2022-08-21T06:49:48;5.35;;;1.52;;
11127;SDS011;5618;51.028;5.234;2022-08-21T06:52:13;4.68;;;1.42;;
11127;SDS011;5618;51.028;5.234;2022-08-21T06:54:40;5.75;;;1.55;;
11127;SDS011;5618;51.028;5.234;2022-08-21T06:57:06;4.70;;;1.70;;
11127;SDS011;5618;51.028;5.234;2022-08-21T06:59:32;3.72;;;1.30;;
11127;SDS011;5618;51.028;5.234;2022-08-21T07:01:58;2.47;;;1.00;;
11127;SDS011;5618;51.028;5.234;2022-08-21T07:04:24;1.45;;;1.10;;
11127;SDS011;5618;51.028;5.234;2022-08-21T07:06:50;3.85;;;1.10;;
11127;SDS011;5618;51.028;5.234;2022-08-21T07:09:15;1.27;;;1.10;;
11127;SDS011;5618;51.028;5.234;2022-08-21T07:11:41;0.85;;;0.82;;
11127;SDS011;5618;51.028;5.234;2022-08-21T07:14:08;4.38;;;1.45;;
11127;SDS011;5618;51.028;5.234;2022-08-21T07:16:34;1.50;;;0.90;;
11127;SDS011;5618;51.028;5.234;2022-08-21T07:19:00;1.92;;;0.90;;
11127;SDS011;5618;51.028;5.234;2022-08-21T07:21:26;5.32;;;1.33;;
11127;SDS011;5618;51.028;5.234;2022-08-21T07:23:51;1.23;;;1.00;;
11127;SDS011;5618;51.028;5.234;2022-08-21T07:26:20;3.35;;;1.38;;
11127;SDS011;5618;51.028;5.234;2022-08-21T07:28:49;3.15;;;1.15;;
11127;SDS011;5618;51.028;5.234;2022-08-21T07:31:16;5.68;;;1.65;;
11127;SDS011;5618;51.028;5.234;2022-08-21T07:33:43;4.45;;;1.48;;
11127;SDS011;5618;51.028;5.234;2022-08-21T07:36:09;4.95;;;1.40;;
11127;SDS011;5618;51.028;5.234;2022-08-21T07:38:36;1.85;;;1.55;;
11127;SDS011;5618;51.028;5.234;2022-08-21T07:41:02;2.47;;;1.42;;
11127;SDS011;5618;51.028;5.234;2022-08-21T07:43:37;4.88;;;1.40;;
11127;SDS011;5618;51.028;5.234;2022-08-21T07:46:03;3.13;;;1.35;;
11127;SDS011;5618;51.028;5.234;2022-08-21T07:48:29;3.38;;;1.42;;
11127;SDS011;5618;51.028;5.234;2022-08-21T07:50:54;3.53;;;1.33;;
11127;SDS011;5618;51.028;5.234;2022-08-21T07:53:20;2.00;;;1.10;;
11127;SDS011;5618;51.028;5.234;2022-08-21T07:55:46;2.78;;;1.10;;
11127;SDS011;5618;51.028;5.234;2022-08-21T07:58:12;2.33;;;1.08;;
11127;SDS011;5618;51.028;5.234;2022-08-21T08:00:38;2.55;;;1.10;;
11127;SDS011;5618;51.028;5.234;2022-08-21T08:03:05;1.75;;;1.08;;
11127;SDS011;5618;51.028;5.234;2022-08-21T08:05:30;1.10;;;1.00;;
11127;SDS011;5618;51.028;5.234;2022-08-21T08:07:57;6.57;;;1.77;;
11127;SDS011;5618;51.028;5.234;2022-08-21T08:10:23;1.73;;;0.90;;
11127;SDS011;5618;51.028;5.234;2022-08-21T08:12:49;3.45;;;1.20;;
11127;SDS011;5618;51.028;5.234;2022-08-21T08:15:17;3.28;;;1.25;;
11127;SDS011;5618;51.028;5.234;2022-08-21T08:17:45;2.92;;;1.48;;
11127;SDS011;5618;51.028;5.234;2022-08-21T08:20:12;3.63;;;1.45;;
11127;SDS011;5618;51.028;5.234;2022-08-21T08:22:39;3.47;;;1.25;;
11127;SDS011;5618;51.028;5.234;2022-08-21T08:25:06;5.72;;;1.48;;
11127;SDS011;5618;51.028;5.234;2022-08-21T08:27:33;4.18;;;1.10;;
11127;SDS011;5618;51.028;5.234;2022-08-21T08:29:59;2.88;;;0.98;;
11127;SDS011;5618;51.028;5.234;2022-08-21T08:32:24;3.15;;;1.08;;
11127;SDS011;5618;51.028;5.234;2022-08-21T08:34:50;2.92;;;0.90;;
11127;SDS011;5618;51.028;5.234;2022-08-21T08:37:16;3.10;;;1.15;;
11127;SDS011;5618;51.028;5.234;2022-08-21T08:39:44;4.10;;;1.20;;
11127;SDS011;5618;51.028;5.234;2022-08-21T08:42:13;2.22;;;0.90;;
11127;SDS011;5618;51.028;5.234;2022-08-21T08:44:43;2.58;;;1.13;;
11127;SDS011;5618;51.028;5.234;2022-08-21T08:47:11;3.85;;;1.52;;
11127;SDS011;5618;51.028;5.234;2022-08-21T08:49:42;5.05;;;1.23;;
11127;SDS011;5618;51.028;5.234;2022-08-21T08:52:20;1.70;;;1.00;;
11127;SDS011;5618;51.028;5.234;2022-08-21T08:55:03;2.47;;;0.85;;
11127;SDS011;5618;51.028;5.234;2022-08-21T08:57:32;3.92;;;1.15;;
11127;SDS011;5618;51.028;5.234;2022-08-21T09:00:00;1.63;;;0.85;;
11127;SDS011;5618;51.028;5.234;2022-08-21T09:02:29;3.15;;;1.15;;
11127;SDS011;5618;51.028;5.234;2022-08-21T09:04:55;2.05;;;1.20;;
11127;SDS011;5618;51.028;5.234;2022-08-21T09:07:26;2.17;;;0.90;;
11127;SDS011;5618;51.028;5.234;2022-08-21T09:26:17;2.10;;;0.93;;
11127;SDS011;5618;51.028;5.234;2022-08-21T09:28:44;1.98;;;0.90;;
11127;SDS011;5618;51.028;5.234;2022-08-21T09:33:50;2.17;;;1.15;;
11127;SDS011;5618;51.028;5.234;2022-08-21T09:36:30;2.25;;;1.00;;
11127;SDS011;5618;51.028;5.234;2022-08-21T09:39:08;4.43;;;1.05;;
11127;SDS011;5618;51.028;5.234;2022-08-21T09:41:37;1.35;;;0.73;;
11127;SDS011;5618;51.028;5.234;2022-08-21T09:44:04;1.13;;;0.50;;
11127;SDS011;5618;51.028;5.234;2022-08-21T09:46:32;5.07;;;1.20;;
11127;SDS011;5618;51.028;5.234;2022-08-21T09:48:59;2.85;;;0.93;;
11127;SDS011;5618;51.028;5.234;2022-08-21T09:51:34;2.00;;;0.75;;
11127;SDS011;5618;51.028;5.234;2022-08-21T09:56:37;3.22;;;1.10;;
11127;SDS011;5618;51.028;5.234;2022-08-21T09:59:28;1.25;;;0.70;;
11127;SDS011;5618;51.028;5.234;2022-08-21T10:01:57;3.80;;;0.80;;
11127;SDS011;5618;51.028;5.234;2022-08-21T10:04:30;2.22;;;0.98;;
11127;SDS011;5618;51.028;5.234;2022-08-21T10:07:08;1.45;;;0.85;;
11127;SDS011;5618;51.028;5.234;2022-08-21T10:09:34;4.40;;;1.05;;
11127;SDS011;5618;51.028;5.234;2022-08-21T10:17:33;1.10;;;0.60;;
11127;SDS011;5618;51.028;5.234;2022-08-21T10:20:23;2.42;;;0.70;;
11127;SDS011;5618;51.028;5.234;2022-08-21T10:28:29;1.52;;;0.73;;
11127;SDS011;5618;51.028;5.234;2022-08-21T10:37:31;2.63;;;0.80;;
11127;SDS011;5618;51.028;5.234;2022-08-21T10:45:12;2.80;;;0.85;;
11127;SDS011;5618;51.028;5.234;2022-08-21T10:47:47;2.60;;;1.05;;
11127;SDS011;5618;51.028;5.234;2022-08-21T10:53:19;1.27;;;0.90;;
11127;SDS011;5618;51.028;5.234;2022-08-21T10:55:56;1.35;;;0.70;;
11127;SDS011;5618;51.028;5.234;2022-08-21T10:58:36;2.10;;;1.00;;
11127;SDS011;5618;51.028;5.234;2022-08-21T11:04:13;3.25;;;0.90;;
11127;SDS011;5618;51.028;5.234;2022-08-21T11:06:53;2.47;;;0.85;;
11127;SDS011;5618;51.028;5.234;2022-08-21T11:09:28;1.85;;;1.20;;
11127;SDS011;5618;51.028;5.234;2022-08-21T11:17:36;3.03;;;0.80;;
11127;SDS011;5618;51.028;5.234;2022-08-21T11:20:21;1.90;;;1.10;;
11127;SDS011;5618;51.028;5.234;2022-08-21T11:23:15;5.95;;;0.95;;
11127;SDS011;5618;51.028;5.234;2022-08-21T11:25:58;2.63;;;0.80;;
11127;SDS011;5618;51.028;5.234;2022-08-21T11:28:30;2.95;;;0.82;;
11127;SDS011;5618;51.028;5.234;2022-08-21T11:42:01;1.55;;;0.85;;
11127;SDS011;5618;51.028;5.234;2022-08-21T11:44:48;3.53;;;1.40;;
11127;SDS011;5618;51.028;5.234;2022-08-21T11:50:18;1.80;;;1.13;;
11127;SDS011;5618;51.028;5.234;2022-08-21T11:55:26;2.45;;;0.73;;
11127;SDS011;5618;51.028;5.234;2022-08-21T11:58:28;6.15;;;1.42;;
11127;SDS011;5618;51.028;5.234;2022-08-21T12:01:05;2.15;;;0.98;;
11127;SDS011;5618;51.028;5.234;2022-08-21T12:03:40;4.43;;;0.93;;
11127;SDS011;5618;51.028;5.234;2022-08-21T12:06:15;1.92;;;0.75;;
11127;SDS011;5618;51.028;5.234;2022-08-21T12:08:59;2.65;;;0.93;;
11127;SDS011;5618;51.028;5.234;2022-08-21T12:11:27;3.33;;;0.95;;
11127;SDS011;5618;51.028;5.234;2022-08-21T12:19:04;4.45;;;1.00;;
11127;SDS011;5618;51.028;5.234;2022-08-21T12:22:20;1.77;;;1.20;;
11127;SDS011;5618;51.028;5.234;2022-08-21T12:26:55;2.65;;;1.02;;
11127;SDS011;5618;51.028;5.234;2022-08-21T12:32:01;1.55;;;0.90;;
11127;SDS011;5618;51.028;5.234;2022-08-21T12:35:11;1.42;;;0.85;;
11127;SDS011;5618;51.028;5.234;2022-08-21T12:37:40;2.67;;;0.88;;
11127;SDS011;5618;51.028;5.234;2022-08-21T12:42:56;1.38;;;0.85;;
11127;SDS011;5618;51.028;5.234;2022-08-21T12:45:29;0.88;;;0.77;;
11127;SDS011;5618;51.028;5.234;2022-08-21T12:50:45;3.20;;;1.00;;
11127;SDS011;5618;51.028;5.234;2022-08-21T12:55:50;3.15;;;0.90;;
11127;SDS011;5618;51.028;5.234;2022-08-21T12:58:20;2.35;;;0.80;;
11127;SDS011;5618;51.028;5.234;2022-08-21T13:00:50;3.83;;;1.08;;
11127;SDS011;5618;51.028;5.234;2022-08-21T13:03:21;2.65;;;0.95;;
11127;SDS011;5618;51.028;5.234;2022-08-21T13:05:48;5.65;;;1.23;;
11127;SDS011;5618;51.028;5.234;2022-08-21T13:08:18;2.55;;;0.73;;
11127;SDS011;5618;51.028;5.234;2022-08-21T13:10:46;4.32;;;1.08;;
11127;SDS011;5618;51.028;5.234;2022-08-21T13:13:19;2.92;;;0.88;;
11127;SDS011;5618;51.028;5.234;2022-08-21T13:15:46;2.88;;;0.98;;
11127;SDS011;5618;51.028;5.234;2022-08-21T13:18:22;2.17;;;0.70;;
11127;SDS011;5618;51.028;5.234;2022-08-21T13:20:50;1.27;;;0.85;;
11127;SDS011;5618;51.028;5.234;2022-08-21T13:25:55;3.90;;;0.80;;
11127;SDS011;5618;51.028;5.234;2022-08-21T13:28:21;0.88;;;0.88;;
11127;SDS011;5618;51.028;5.234;2022-08-21T13:30:48;3.97;;;0.93;;
11127;SDS011;5618;51.028;5.234;2022-08-21T13:33:16;1.77;;;1.13;;
11127;SDS011;5618;51.028;5.234;2022-08-21T13:38:23;3.28;;;1.02;;
11127;SDS011;5618;51.028;5.234;2022-08-21T13:40:56;2.15;;;0.90;;
11127;SDS011;5618;51.028;5.234;2022-08-21T13:43:33;4.65;;;0.77;;
11127;SDS011;5618;51.028;5.234;2022-08-21T13:46:01;2.38;;;0.95;;
11127;SDS011;5618;51.028;5.234;2022-08-21T13:48:33;3.28;;;1.10;;
11127;SDS011;5618;51.028;5.234;2022-08-21T13:51:00;1.30;;;1.08;;
11127;SDS011;5618;51.028;5.234;2022-08-21T13:56:00;2.65;;;0.80;;
11127;SDS011;5618;51.028;5.234;2022-08-21T13:58:46;2.20;;;0.73;;
11127;SDS011;5618;51.028;5.234;2022-08-21T14:06:45;1.40;;;1.02;;
11127;SDS011;5618;51.028;5.234;2022-08-21T14:12:00;2.63;;;0.95;;
11127;SDS011;5618;51.028;5.234;2022-08-21T14:14:35;1.88;;;1.10;;
11127;SDS011;5618;51.028;5.234;2022-08-21T14:17:05;2.50;;;1.05;;
11127;SDS011;5618;51.028;5.234;2022-08-21T14:22:23;3.15;;;1.30;;
11127;SDS011;5618;51.028;5.234;2022-08-21T14:25:00;1.05;;;0.65;;
11127;SDS011;5618;51.028;5.234;2022-08-21T14:27:30;2.80;;;1.10;;
11127;SDS011;5618;51.028;5.234;2022-08-21T14:29:59;1.95;;;0.88;;
11127;SDS011;5618;51.028;5.234;2022-08-21T14:32:30;2.83;;;1.13;;
11127;SDS011;5618;51.028;5.234;2022-08-21T14:35:02;2.63;;;0.95;;
11127;SDS011;5618;51.028;5.234;2022-08-21T14:37:28;4.18;;;1.33;;
11127;SDS011;5618;51.028;5.234;2022-08-21T14:39:54;4.18;;;1.17;;
11127;SDS011;5618;51.028;5.234;2022-08-21T14:42:19;3.67;;;1.00;;
11127;SDS011;5618;51.028;5.234;2022-08-21T14:44:45;1.80;;;0.70;;
11127;SDS011;5618;51.028;5.234;2022-08-21T14:47:11;3.20;;;1.25;;
11127;SDS011;5618;51.028;5.234;2022-08-21T14:49:37;3.53;;;1.15;;
11127;SDS011;5618;51.028;5.234;2022-08-21T14:52:02;2.35;;;1.20;;
11127;SDS011;5618;51.028;5.234;2022-08-21T14:54:29;2.10;;;0.98;;
11127;SDS011;5618;51.028;5.234;2022-08-21T14:56:57;3.90;;;1.60;;
11127;SDS011;5618;51.028;5.234;2022-08-21T14:59:25;2.55;;;0.75;;
11127;SDS011;5618;51.028;5.234;2022-08-21T15:01:51;3.17;;;1.10;;
11127;SDS011;5618;51.028;5.234;2022-08-21T15:04:17;1.98;;;0.98;;
11127;SDS011;5618;51.028;5.234;2022-08-21T15:06:42;2.58;;;0.63;;
11127;SDS011;5618;51.028;5.234;2022-08-21T15:09:08;5.15;;;1.65;;
11127;SDS011;5618;51.028;5.234;2022-08-21T15:11:34;3.28;;;1.10;;
11127;SDS011;5618;51.028;5.234;2022-08-21T15:14:00;5.13;;;1.02;;
11127;SDS011;5618;51.028;5.234;2022-08-21T15:16:28;2.92;;;0.88;;
11127;SDS011;5618;51.028;5.234;2022-08-21T15:18:58;2.38;;;1.15;;
11127;SDS011;5618;51.028;5.234;2022-08-21T15:21:23;3.65;;;1.10;;
11127;SDS011;5618;51.028;5.234;2022-08-21T15:23:49;2.80;;;0.90;;
11127;SDS011;5618;51.028;5.234;2022-08-21T15:26:15;3.92;;;0.90;;
11127;SDS011;5618;51.028;5.234;2022-08-21T15:28:40;2.95;;;1.05;;
11127;SDS011;5618;51.028;5.234;2022-08-21T15:31:06;6.20;;;1.10;;
11127;SDS011;5618;51.028;5.234;2022-08-21T15:33:32;3.22;;;1.10;;
11127;SDS011;5618;51.028;5.234;2022-08-21T15:35:58;2.97;;;0.82;;
11127;SDS011;5618;51.028;5.234;2022-08-21T15:38:23;4.63;;;1.65;;
11127;SDS011;5618;51.028;5.234;2022-08-21T15:40:49;2.75;;;0.80;;
11127;SDS011;5618;51.028;5.234;2022-08-21T15:43:26;4.85;;;1.33;;
11127;SDS011;5618;51.028;5.234;2022-08-21T15:46:04;2.83;;;0.75;;
11127;SDS011;5618;51.028;5.234;2022-08-21T15:48:30;1.58;;;0.90;;
11127;SDS011;5618;51.028;5.234;2022-08-21T15:50:56;3.08;;;1.10;;
11127;SDS011;5618;51.028;5.234;2022-08-21T15:53:22;3.80;;;0.98;;
11127;SDS011;5618;51.028;5.234;2022-08-21T15:55:48;2.38;;;1.08;;
11127;SDS011;5618;51.028;5.234;2022-08-21T15:58:14;2.80;;;1.20;;
11127;SDS011;5618;51.028;5.234;2022-08-21T16:00:41;2.40;;;1.35;;
11127;SDS011;5618;51.028;5.234;2022-08-21T16:03:09;5.43;;;1.27;;
11127;SDS011;5618;51.028;5.234;2022-08-21T16:05:41;2.90;;;1.20;;
11127;SDS011;5618;51.028;5.234;2022-08-21T16:08:07;1.98;;;0.65;;
11127;SDS011;5618;51.028;5.234;2022-08-21T16:10:35;2.22;;;1.20;;
11127;SDS011;5618;51.028;5.234;2022-08-21T16:13:04;3.08;;;1.17;;
11127;SDS011;5618;51.028;5.234;2022-08-21T16:15:34;2.78;;;1.17;;
11127;SDS011;5618;51.028;5.234;2022-08-21T16:18:00;4.55;;;0.80;;
11127;SDS011;5618;51.028;5.234;2022-08-21T16:20:27;6.75;;;1.23;;
11127;SDS011;5618;51.028;5.234;2022-08-21T16:22:54;3.67;;;1.30;;
11127;SDS011;5618;51.028;5.234;2022-08-21T16:25:22;3.22;;;0.90;;
11127;SDS011;5618;51.028;5.234;2022-08-21T16:27:49;1.10;;;0.95;;
11127;SDS011;5618;51.028;5.234;2022-08-21T16:30:18;3.85;;;1.20;;
11127;SDS011;5618;51.028;5.234;2022-08-21T16:32:45;3.67;;;1.20;;
11127;SDS011;5618;51.028;5.234;2022-08-21T16:35:12;1.20;;;0.75;;
11127;SDS011;5618;51.028;5.234;2022-08-21T16:37:40;2.45;;;1.00;;
11127;SDS011;5618;51.028;5.234;2022-08-21T16:40:07;1.13;;;0.70;;
11127;SDS011;5618;51.028;5.234;2022-08-21T16:42:34;1.17;;;0.85;;
11127;SDS011;5618;51.028;5.234;2022-08-21T16:45:04;1.98;;;1.10;;
11127;SDS011;5618;51.028;5.234;2022-08-21T16:47:31;4.35;;;1.00;;
11127;SDS011;5618;51.028;5.234;2022-08-21T16:49:56;1.50;;;0.70;;
11127;SDS011;5618;51.028;5.234;2022-08-21T16:52:22;2.58;;;1.02;;
11127;SDS011;5618;51.028;5.234;2022-08-21T16:54:48;2.47;;;1.13;;
11127;SDS011;5618;51.028;5.234;2022-08-21T16:57:14;4.55;;;1.05;;
11127;SDS011;5618;51.028;5.234;2022-08-21T16:59:40;2.40;;;1.30;;
11127;SDS011;5618;51.028;5.234;2022-08-21T17:02:32;2.40;;;1.10;;
11127;SDS011;5618;51.028;5.234;2022-08-21T17:04:55;4.55;;;1.10;;